| time (UTC) | temp F | wind direction | speed MPH | gust MPH | rain 1hr in | rain 24hr in | rain mn in | humidity % | barometer mb |
| 20260504100545 | 45 | 230 | 0.0 | 0.0 | 0.00 | 0.00 | 0.00 | 71 | 1012.1 |
| 20260504081538 | 48 | 120 | 0.0 | 0.0 | 0.00 | 0.00 | 0.00 | 64 | 1012.4 |
| 20260504081038 | 48 | 120 | 0.0 | 0.0 | 0.00 | 0.00 | 0.00 | 63 | 1012.4 |
| 20260504080537 | 48 | 120 | 0.0 | 0.0 | 0.00 | 0.00 | 0.00 | 64 | 1012.5 |
| 20260504050516 | 47 | 207 | 0.0 | 0.0 | 0.00 | 0.00 | 0.00 | 55 | 1013.3 |
| 20260504050016 | 46 | 186 | 0.0 | 0.0 | 0.00 | 0.00 | 0.00 | 57 | 1013.4 |
| 20260504045514 | 46 | 186 | 0.0 | 0.0 | 0.00 | 0.00 | 0.00 | 58 | 1013.4 |
| 20260504045020 | 46 | 186 | 0.0 | 0.0 | 0.00 | 0.00 | 0.00 | 58 | 1013.4 |
| 20260504044532 | 46 | 186 | 0.0 | 0.0 | 0.00 | 0.00 | 0.00 | 58 | 1013.4 |
| 20260504044014 | 46 | 186 | 0.0 | 0.0 | 0.00 | 0.00 | 0.00 | 58 | 1013.5 |
| 20260504043513 | 46 | 186 | 0.0 | 0.0 | 0.00 | 0.00 | 0.00 | 59 | 1013.3 |
| 20260504043018 | 46 | 186 | 0.0 | 0.0 | 0.00 | 0.00 | 0.00 | 58 | 1013.3 |
| 20260504042512 | 46 | 186 | 0.0 | 0.0 | 0.00 | 0.00 | 0.00 | 57 | 1013.2 |
| 20260504042012 | 46 | 164 | 0.0 | 0.0 | 0.00 | 0.00 | 0.00 | 56 | 1013.2 |
| 20260504041511 | 46 | 164 | 0.0 | 0.0 | 0.00 | 0.00 | 0.00 | 57 | 1013.2 |
| 20260504041010 | 46 | 164 | 0.0 | 0.0 | 0.00 | 0.00 | 0.00 | 57 | 1013.2 |
| 20260504040510 | 47 | 164 | 0.0 | 0.0 | 0.00 | 0.00 | 0.00 | 57 | 1013.2 |
| 20260504040007 | 47 | 164 | 0.0 | 0.0 | 0.00 | 0.00 | 0.00 | 54 | 1013.2 |
| 20260504035516 | 49 | 164 | 0.0 | 0.0 | 0.00 | 0.00 | 0.00 | 53 | 1013.2 |
| 20260504035008 | 49 | 164 | 0.0 | 0.0 | 0.00 | 0.00 | 0.00 | 51 | 1013.2 |
| 20260504034507 | 49 | 142 | 0.0 | 0.0 | 0.00 | 0.00 | 0.00 | 51 | 1013.2 |
| 20260504034006 | 49 | 142 | 0.0 | 0.0 | 0.00 | 0.00 | 0.00 | 52 | 1013.2 |
| 20260504033510 | 50 | 142 | 0.0 | 0.0 | 0.00 | 0.00 | 0.00 | 51 | 1013.2 |
| 20260504033009 | 49 | 142 | 0.0 | 0.0 | 0.00 | 0.00 | 0.00 | 50 | 1013.1 |
| 20260504032505 | 49 | 141 | 0.0 | 0.0 | 0.00 | 0.00 | 0.00 | 50 | 1013.1 |
| 20260504032006 | 48 | 134 | 0.0 | 0.0 | 0.00 | 0.00 | 0.00 | 51 | 1013.0 |
| 20260504031505 | 48 | 132 | 0.0 | 0.0 | 0.00 | 0.00 | 0.00 | 52 | 1013.0 |
| 20260504031005 | 47 | 132 | 0.0 | 0.0 | 0.00 | 0.00 | 0.00 | 54 | 1013.0 |
| 20260504030505 | 46 | 84 | 0.0 | 0.0 | 0.00 | 0.00 | 0.00 | 55 | 1013.0 |
| 20260504030004 | 47 | 84 | 0.0 | 0.0 | 0.00 | 0.00 | 0.00 | 55 | 1012.9 |
| 20260504025505 | 46 | 84 | 0.0 | 0.0 | 0.00 | 0.00 | 0.00 | 56 | 1012.8 |
| 20260504025004 | 46 | 84 | 0.0 | 0.0 | 0.00 | 0.00 | 0.00 | 55 | 1012.8 |
| 20260504024509 | 46 | 84 | 0.0 | 0.0 | 0.00 | 0.00 | 0.00 | 55 | 1012.8 |
| 20260504024007 | 46 | 84 | 0.0 | 0.0 | 0.00 | 0.00 | 0.00 | 55 | 1012.8 |
| 20260504023507 | 46 | 84 | 0.0 | 0.0 | 0.00 | 0.00 | 0.00 | 54 | 1012.8 |
| 20260504023004 | 47 | 84 | 0.0 | 0.0 | 0.00 | 0.00 | 0.00 | 54 | 1012.7 |
| 20260504022504 | 47 | 84 | 0.0 | 0.0 | 0.00 | 0.00 | 0.00 | 55 | 1012.7 |
| 20260504022004 | 47 | 84 | 0.0 | 0.0 | 0.00 | 0.00 | 0.00 | 55 | 1012.7 |
| 20260504021504 | 47 | 84 | 0.0 | 0.0 | 0.00 | 0.00 | 0.00 | 56 | 1012.7 |
| 20260504021004 | 46 | 84 | 0.0 | 0.0 | 0.00 | 0.00 | 0.00 | 57 | 1012.6 |
| 20260504020502 | 46 | 84 | 0.0 | 0.0 | 0.00 | 0.00 | 0.00 | 57 | 1012.6 |
| 20260504020005 | 47 | 84 | 0.0 | 0.0 | 0.00 | 0.00 | 0.00 | 53 | 1012.5 |
| 20260504015503 | 47 | 84 | 0.0 | 0.0 | 0.00 | 0.00 | 0.00 | 57 | 1012.4 |
| 20260504015003 | 47 | 84 | 0.0 | 0.0 | 0.00 | 0.00 | 0.00 | 57 | 1012.4 |
| 20260504014502 | 48 | 84 | 0.0 | 0.0 | 0.00 | 0.00 | 0.00 | 55 | 1012.4 |
| 20260504014003 | 49 | 84 | 0.0 | 0.0 | 0.00 | 0.00 | 0.00 | 53 | 1012.3 |
| 20260504013502 | 49 | 84 | 0.0 | 0.0 | 0.00 | 0.00 | 0.00 | 51 | 1012.3 |
| 20260504013002 | 49 | 84 | 0.0 | 0.0 | 0.00 | 0.00 | 0.00 | 51 | 1012.3 |
| 20260504012502 | 49 | 84 | 0.0 | 0.0 | 0.00 | 0.00 | 0.00 | 52 | 1012.3 |
| 20260504012002 | 49 | 84 | 0.0 | 0.0 | 0.00 | 0.00 | 0.00 | 51 | 1012.3 |
| 20260504011502 | 50 | 84 | 0.0 | 0.0 | 0.00 | 0.00 | 0.00 | 51 | 1012.2 |
| 20260504011001 | 49 | 84 | 0.0 | 0.0 | 0.00 | 0.00 | 0.00 | 51 | 1012.2 |
| 20260504010501 | 49 | 84 | 0.0 | 0.0 | 0.00 | 0.00 | 0.00 | 54 | 1012.2 |
| 20260504010112 | 49 | 84 | 0.0 | 0.0 | 0.00 | 0.00 | 0.00 | 54 | 1012.2 |
| 20260504005601 | 49 | 84 | 0.0 | 0.0 | 0.00 | 0.00 | 0.00 | 57 | 1012.2 |
| 20260504005102 | 50 | 84 | 0.0 | 0.0 | 0.00 | 0.00 | 0.00 | 55 | 1012.2 |
| 20260504004603 | 50 | 84 | 0.0 | 0.0 | 0.00 | 0.00 | 0.00 | 51 | 1012.1 |
| 20260504004059 | 50 | 84 | 0.0 | 0.0 | 0.00 | 0.00 | 0.00 | 50 | 1012.0 |
| 20260504003602 | 51 | 84 | 0.0 | 0.0 | 0.00 | 0.00 | 0.00 | 50 | 1012.0 |
| 20260504003100 | 51 | 84 | 0.0 | 0.0 | 0.00 | 0.00 | 0.00 | 48 | 1012.0 |
| 20260504002559 | 53 | 84 | 0.0 | 0.0 | 0.00 | 0.00 | 0.00 | 47 | 1011.9 |
| 20260504002059 | 54 | 84 | 0.0 | 0.0 | 0.00 | 0.00 | 0.00 | 45 | 1011.9 |
| 20260504001614 | 54 | 84 | 0.0 | 0.0 | 0.00 | 0.00 | 0.00 | 43 | 1012.0 |
| 20260504001059 | 55 | 84 | 0.0 | 0.0 | 0.00 | 0.00 | 0.00 | 41 | 1012.0 |
| 20260504000558 | 56 | 84 | 0.0 | 1.0 | 0.00 | 0.00 | 0.00 | 41 | 1012.0 |
| 20260504000058 | 56 | 75 | 0.0 | 1.0 | 0.00 | 0.00 | 0.00 | 40 | 1011.9 |
| 20260503235557 | 56 | 206 | 0.0 | 1.0 | 0.00 | 0.00 | 0.00 | 40 | 1011.8 |
| 20260503235057 | 56 | 222 | 0.0 | 1.0 | 0.00 | 0.00 | 0.00 | 40 | 1011.8 |
| 20260503234557 | 57 | 222 | 0.0 | 2.0 | 0.00 | 0.00 | 0.00 | 39 | 1011.7 |
| 20260503234057 | 57 | 227 | 0.0 | 2.0 | 0.00 | 0.00 | 0.00 | 38 | 1011.7 |
| 20260503233557 | 58 | 250 | 0.0 | 2.0 | 0.00 | 0.00 | 0.00 | 37 | 1011.7 |
| 20260503233057 | 58 | 239 | 0.0 | 0.0 | 0.00 | 0.00 | 0.00 | 40 | 1011.7 |
| 20260503232600 | 58 | 229 | 0.0 | 1.0 | 0.00 | 0.00 | 0.00 | 39 | 1011.7 |
| 20260503232056 | 59 | 229 | 0.0 | 1.0 | 0.00 | 0.00 | 0.00 | 36 | 1011.6 |
| 20260503231557 | 59 | 261 | 0.0 | 1.0 | 0.00 | 0.00 | 0.00 | 38 | 1011.6 |
| 20260503231057 | 59 | 241 | 0.0 | 1.0 | 0.00 | 0.00 | 0.00 | 37 | 1011.5 |
| 20260503230557 | 59 | 235 | 0.0 | 2.0 | 0.00 | 0.00 | 0.00 | 36 | 1011.5 |
| 20260503230059 | 59 | 246 | 0.0 | 4.0 | 0.00 | 0.00 | 0.00 | 34 | 1011.5 |
| 20260503225555 | 59 | 275 | 0.0 | 4.0 | 0.00 | 0.00 | 0.00 | 36 | 1011.4 |
| 20260503225055 | 59 | 243 | 0.0 | 5.0 | 0.00 | 0.00 | 0.00 | 35 | 1011.4 |
| 20260503224555 | 60 | 240 | 0.0 | 3.0 | 0.00 | 0.00 | 0.00 | 37 | 1011.4 |
| 20260503224055 | 60 | 302 | 0.0 | 3.0 | 0.00 | 0.00 | 0.00 | 35 | 1011.4 |
| 20260503223554 | 60 | 265 | 0.0 | 3.0 | 0.00 | 0.00 | 0.00 | 35 | 1011.4 |
| 20260503223054 | 60 | 285 | 0.0 | 3.0 | 0.00 | 0.00 | 0.00 | 35 | 1011.4 |
| 20260503222556 | 60 | 215 | 0.0 | 3.0 | 0.00 | 0.00 | 0.00 | 36 | 1011.4 |
| 20260503222053 | 61 | 304 | 0.0 | 6.0 | 0.00 | 0.00 | 0.00 | 33 | 1011.5 |
| 20260503221553 | 61 | 204 | 0.0 | 7.0 | 0.00 | 0.00 | 0.00 | 34 | 1011.5 |
| 20260503221057 | 61 | 262 | 1.0 | 6.0 | 0.00 | 0.00 | 0.00 | 35 | 1011.5 |
| 20260503220553 | 62 | 296 | 0.0 | 4.0 | 0.00 | 0.00 | 0.00 | 35 | 1011.6 |
| 20260503220108 | 62 | 249 | 0.0 | 4.0 | 0.00 | 0.00 | 0.00 | 36 | 1011.5 |
| 20260503215553 | 62 | 229 | 0.0 | 7.0 | 0.00 | 0.00 | 0.00 | 36 | 1011.5 |
| 20260503215051 | 62 | 265 | 0.0 | 7.0 | 0.00 | 0.00 | 0.00 | 35 | 1011.5 |
| 20260503214651 | 62 | 313 | 0.0 | 1.0 | 0.00 | 0.00 | 0.00 | 36 | 1011.6 |
| 20260503214051 | 61 | 236 | 0.0 | 1.0 | 0.00 | 0.00 | 0.00 | 36 | 1011.6 |
| 20260503213553 | 61 | 279 | 0.0 | 1.0 | 0.00 | 0.00 | 0.00 | 36 | 1011.5 |
| 20260503213051 | 62 | 261 | 0.0 | 5.0 | 0.00 | 0.00 | 0.00 | 34 | 1011.6 |
| 20260503212551 | 62 | 213 | 0.0 | 5.0 | 0.00 | 0.00 | 0.00 | 34 | 1011.7 |
| 20260503212050 | 62 | 298 | 0.0 | 1.0 | 0.00 | 0.00 | 0.00 | 38 | 1011.6 |
| 20260503211604 | 62 | 288 | 0.0 | 1.0 | 0.00 | 0.00 | 0.00 | 33 | 1011.6 |
| 20260503211054 | 62 | 242 | 0.0 | 10.0 | 0.00 | 0.00 | 0.00 | 33 | 1011.7 |
| 20260503210549 | 62 | 306 | 0.0 | 4.0 | 0.00 | 0.00 | 0.00 | 36 | 1011.6 |
| 20260503210055 | 62 | 258 | 0.0 | 5.0 | 0.00 | 0.00 | 0.00 | 34 | 1011.6 |
| 20260503205549 | 62 | 292 | 0.0 | 5.0 | 0.00 | 0.00 | 0.00 | 40 | 1011.7 |
| 20260503205052 | 62 | 244 | 0.0 | 5.0 | 0.00 | 0.00 | 0.00 | 36 | 1011.6 |
| 20260503204554 | 62 | 203 | 0.0 | 7.0 | 0.00 | 0.00 | 0.00 | 39 | 1011.6 |
| 20260503204048 | 61 | 261 | 1.0 | 9.0 | 0.00 | 0.00 | 0.00 | 35 | 1011.7 |
| 20260503203548 | 62 | 275 | 0.0 | 9.0 | 0.00 | 0.00 | 0.00 | 36 | 1011.8 |
| 20260503203047 | 61 | 240 | 0.0 | 4.0 | 0.00 | 0.00 | 0.00 | 38 | 1011.8 |
| 20260503202547 | 62 | 243 | 0.0 | 5.0 | 0.00 | 0.00 | 0.00 | 36 | 1011.9 |
| 20260503202047 | 61 | 298 | 1.0 | 5.0 | 0.00 | 0.00 | 0.00 | 36 | 1011.8 |
| 20260503201546 | 61 | 259 | 0.0 | 8.0 | 0.00 | 0.00 | 0.00 | 35 | 1011.9 |
| 20260503201048 | 61 | 253 | 1.0 | 8.0 | 0.00 | 0.00 | 0.00 | 36 | 1011.9 |
| 20260503200549 | 61 | 256 | 0.0 | 11.0 | 0.00 | 0.00 | 0.00 | 39 | 1011.9 |
| 20260503200044 | 60 | 309 | 1.0 | 11.0 | 0.00 | 0.00 | 0.00 | 33 | 1012.1 |
| 20260503195544 | 61 | 288 | 0.0 | 8.0 | 0.00 | 0.00 | 0.00 | 38 | 1012.3 |
| 20260503195044 | 61 | 240 | 0.0 | 12.0 | 0.00 | 0.00 | 0.00 | 37 | 1012.4 |
| 20260503194547 | 60 | 296 | 2.0 | 12.0 | 0.00 | 0.00 | 0.00 | 39 | 1012.5 |
| 20260503194044 | 61 | 294 | 0.0 | 10.0 | 0.00 | 0.00 | 0.00 | 39 | 1012.5 |
| 20260503193544 | 60 | 254 | 0.0 | 9.0 | 0.00 | 0.00 | 0.00 | 41 | 1012.6 |
| 20260503193049 | 60 | 221 | 1.0 | 8.0 | 0.00 | 0.00 | 0.00 | 39 | 1012.7 |
| 20260503192542 | 60 | 292 | 1.0 | 6.0 | 0.00 | 0.00 | 0.00 | 36 | 1012.8 |
| 20260503192043 | 60 | 304 | 0.0 | 3.0 | 0.00 | 0.00 | 0.00 | 35 | 1012.8 |
| 20260503191541 | 59 | 215 | 0.0 | 3.0 | 0.00 | 0.00 | 0.00 | 39 | 1012.9 |
| 20260503191041 | 59 | 206 | 0.0 | 10.0 | 0.00 | 0.00 | 0.00 | 41 | 1013.0 |
| 20260503190541 | 60 | 282 | 1.0 | 10.0 | 0.00 | 0.00 | 0.00 | 37 | 1013.1 |
| 20260503190044 | 60 | 269 | 0.0 | 6.0 | 0.00 | 0.00 | 0.00 | 39 | 1013.2 |
| 20260503185540 | 60 | 305 | 0.0 | 4.0 | 0.00 | 0.00 | 0.00 | 43 | 1013.1 |
| 20260503185039 | 58 | 224 | 0.0 | 4.0 | 0.00 | 0.00 | 0.00 | 39 | 1013.2 |
| 20260503184539 | 58 | 292 | 0.0 | 5.0 | 0.00 | 0.00 | 0.00 | 43 | 1013.2 |
| 20260503184039 | 58 | 225 | 0.0 | 5.0 | 0.00 | 0.00 | 0.00 | 39 | 1013.4 |
| 20260503183538 | 58 | 298 | 0.0 | 10.0 | 0.00 | 0.00 | 0.00 | 44 | 1013.4 |
| 20260503183041 | 58 | 288 | 1.0 | 10.0 | 0.00 | 0.00 | 0.00 | 40 | 1013.4 |
| 20260503182539 | 59 | 252 | 0.0 | 10.0 | 0.00 | 0.00 | 0.00 | 45 | 1013.4 |
| 20260503182041 | 58 | 250 | 0.0 | 12.0 | 0.00 | 0.00 | 0.00 | 41 | 1013.5 |
| 20260503181612 | 58 | 280 | 1.0 | 10.0 | 0.00 | 0.00 | 0.00 | 38 | 1013.4 |
| 20260503181037 | 58 | 275 | 0.0 | 4.0 | 0.00 | 0.00 | 0.00 | 40 | 1013.4 |
| 20260503180536 | 57 | 237 | 0.0 | 10.0 | 0.00 | 0.00 | 0.00 | 45 | 1013.7 |
| 20260503180040 | 56 | 263 | 0.0 | 10.0 | 0.00 | 0.00 | 0.00 | 45 | 1013.6 |
| 20260503175534 | 57 | 228 | 0.0 | 11.0 | 0.00 | 0.00 | 0.00 | 41 | 1013.6 |
| 20260503175033 | 56 | 209 | 2.0 | 11.0 | 0.00 | 0.00 | 0.00 | 43 | 1013.7 |
| 20260503174532 | 55 | 279 | 0.0 | 5.0 | 0.00 | 0.00 | 0.00 | 47 | 1013.7 |
| 20260503174032 | 55 | 304 | 0.0 | 5.0 | 0.00 | 0.00 | 0.00 | 51 | 1013.8 |
| 20260503173532 | 55 | 318 | 0.0 | 6.0 | 0.00 | 0.00 | 0.00 | 46 | 1013.9 |
| 20260503173045 | 55 | 15 | 0.0 | 4.0 | 0.00 | 0.00 | 0.00 | 47 | 1013.8 |
| 20260503172532 | 55 | 9 | 0.0 | 3.0 | 0.00 | 0.00 | 0.00 | 45 | 1013.9 |
| 20260503172031 | 55 | 25 | 0.0 | 4.0 | 0.00 | 0.00 | 0.00 | 45 | 1013.9 |
| 20260503171531 | 56 | 267 | 0.0 | 10.0 | 0.00 | 0.00 | 0.00 | 47 | 1014.0 |
| 20260503171030 | 55 | 252 | 0.0 | 10.0 | 0.00 | 0.00 | 0.00 | 46 | 1014.1 |
| 20260503170529 | 55 | 239 | 1.0 | 7.0 | 0.00 | 0.00 | 0.00 | 50 | 1014.0 |
| 20260503150520 | 49 | 33 | 0.0 | 7.0 | 0.00 | 0.00 | 0.00 | 51 | 1014.9 |
| 20260503131007 | 46 | 300 | 0.0 | 10.0 | 0.00 | 0.00 | 0.00 | 60 | 1015.2 |
| 20260503130508 | 46 | 322 | 1.0 | 10.0 | 0.00 | 0.00 | 0.00 | 60 | 1015.3 |
| 20260503120108 | 43 | 244 | 0.0 | 8.0 | 0.00 | 0.00 | 0.00 | 64 | 1015.0 |
| 20260503110550 | 39 | 267 | 0.0 | 0.0 | 0.00 | 0.00 | 0.00 | 74 | 1014.2 |